This is the latest recevied weather packets stored in our database for station/object DK0KTL-4. If no packets are shown the sender has not sent any weather packets the latest 1 day(s).
| Time | Temp. | Humidity | Pressure | Rain* | Wind** | Luminosity | Snow |
|---|---|---|---|---|---|---|---|
| 1836274542 | 11.11° C | 92% | 1018.6 hPa | 0 mm | 0 m/s | - | - |
| 1778013383 | 12.22° C | 92% | 1005.1 hPa | 12.45 mm | 0 m/s | - | - |
| 1778013082 | 12.78° C | 91% | 1005.2 hPa | 12.19 mm | 0 m/s | - | - |
| 1778012782 | 12.78° C | 91% | 1005.5 hPa | 12.19 mm | 0.45 m/s, 330° | - | - |
| 1778012181 | 12.78° C | 90% | 1005.6 hPa | 10.92 mm | 0 m/s | - | - |
| 1778011881 | 12.78° C | 90% | 1005.7 hPa | 10.16 mm | 0 m/s | - | - |
| 1778011581 | 12.78° C | 88% | 1005.8 hPa | 9.4 mm | 0.89 m/s, 86° | - | - |
| 1778011281 | 13.33° C | 87% | 1006 hPa | 8.38 mm | 0.89 m/s, 120° | - | - |
| 1778010981 | 13.33° C | 87% | 1005.8 hPa | 7.37 mm | 0.89 m/s, 274° | - | - |
| 1778009779 | 15.56° C | 84% | 1005.2 hPa | 1.52 mm | 0.89 m/s, 136° | - | - |
| 1778009479 | 16.11° C | 82% | 1005.2 hPa | 0.51 mm | 0.45 m/s, 134° | - | - |
| 1778009179 | 16.11° C | 80% | 1005.2 hPa | 0 mm | 0.45 m/s, 160° | - | - |
| 1778008879 | 16.11° C | 79% | 1005.2 hPa | 0 mm | 0.45 m/s, 146° | - | - |
| 1778008578 | 16.11° C | 79% | 1005.2 hPa | 0 mm | 0 m/s | - | - |
| 1778007978 | 16.11° C | 78% | 1004.4 hPa | 0 mm | 0.45 m/s, 29° | - | - |
| 1778007377 | 16.11° C | 77% | 1004.1 hPa | 0 mm | 0.89 m/s, 311° | - | - |
| 1778007076 | 16.11° C | 77% | 1004 hPa | 0 mm | 0.89 m/s, 271° | - | - |
| 1778006476 | 16.67° C | 76% | 1003.9 hPa | 0 mm | 0.89 m/s, 246° | - | - |
| 1778005275 | 16.67° C | 75% | 1004.4 hPa | 0 mm | 0.89 m/s, 199° | - | - |
| 1778004974 | 16.67° C | 75% | 1004.5 hPa | 0 mm | 0.89 m/s, 342° | - | - |
| 1778004374 | 16.67° C | 74% | 1004.5 hPa | 0 mm | 0.89 m/s, 56° | - | - |
| 1778003773 | 16.67° C | 75% | 1004.6 hPa | 0 mm | 0.45 m/s, 78° | - | - |
| 1778002572 | 17.22° C | 75% | 1004.7 hPa | 0 mm | 0.45 m/s, 247° | - | - |
| 1778002272 | 17.22° C | 75% | 1004.8 hPa | 0 mm | 0.45 m/s, 153° | - | - |
| 1778001672 | 17.22° C | 76% | 1004.9 hPa | 0 mm | 0.45 m/s, 254° | - | - |
* Rain latest hour (hover to see other rain measurements)
** Current wind speed in m/s (hover to see current wind gust speed)